Time;durP1;ratioP1;P1;durP2;ratioP2;P2;SDS_P1;SDS_P2;PMS_P1;PMS_P2;Temp;Humidity;BMP_temperature;BMP_pressure;BME280_temperature;BME280_humidity;BME280_pressure;Samples;Min_cycle;Max_cycle;Signal;HPM_P1;HPM_P2
2023/10/13 00:00:40;;;;;;;0.20;0.20;;;13.50;99.90;;;;;;5102720;27;20075;-75
2023/10/13 00:03:15;;;;;;;0.25;0.25;;;13.50;99.90;;;;;;5103548;28;20054;-75
2023/10/13 00:05:42;;;;;;;0.52;0.50;;;13.60;99.90;;;;;;5104099;28;20502;-75
2023/10/13 00:08:09;;;;;;;0.30;0.30;;;13.60;99.90;;;;;;5103195;27;20054;-76
2023/10/13 00:10:36;;;;;;;1.25;0.52;;;13.60;99.90;;;;;;5099352;28;20051;-76
2023/10/13 00:13:21;;;;;;;0.30;0.30;;;13.60;99.90;;;;;;5099490;28;20414;-76
2023/10/13 00:15:59;;;;;;;0.40;0.40;;;13.70;99.90;;;;;;5095647;28;20052;-76
2023/10/13 00:18:34;;;;;;;0.98;0.65;;;13.70;99.90;;;;;;5104097;28;20488;-76
2023/10/13 00:21:03;;;;;;;0.57;0.57;;;13.80;99.90;;;;;;5100829;28;20076;-76
2023/10/13 00:23:32;;;;;;;0.50;0.50;;;;;;;;;;5100958;28;20073;-75
2023/10/13 00:25:59;;;;;;;0.40;0.40;;;13.90;99.90;;;;;;5098970;28;20104;-76
2023/10/13 00:28:26;;;;;;;1.55;1.52;;;14.00;99.90;;;;;;5101588;28;20058;-76
2023/10/13 00:31:00;;;;;;;0.63;0.63;;;14.10;99.90;;;;;;5086811;28;20696;-76
2023/10/13 00:33:26;;;;;;;0.80;0.80;;;14.20;99.90;;;;;;5096505;28;20048;-76
2023/10/13 00:35:54;;;;;;;0.52;0.52;;;;;;;;;;5099830;28;20048;-75
2023/10/13 00:38:19;;;;;;;0.40;0.40;;;14.30;99.90;;;;;;5107506;28;20051;-75
2023/10/13 00:40:52;;;;;;;1.95;1.17;;;14.30;99.90;;;;;;5100412;28;20040;-76
2023/10/13 00:48:33;;;;;;;5.07;2.40;;;14.50;99.90;;;;;;5058918;28;20052;-76
2023/10/13 00:51:03;;;;;;;2.88;2.67;;;14.50;99.90;;;;;;5064107;28;20041;-76
2023/10/13 00:53:33;;;;;;;1.45;1.27;;;14.60;99.90;;;;;;5058725;28;20124;-76
2023/10/13 00:56:07;;;;;;;2.42;1.20;;;14.70;99.90;;;;;;5064831;28;20048;-76
2023/10/13 00:58:38;;;;;;;1.63;1.42;;;14.70;99.90;;;;;;5058039;28;20045;-76
2023/10/13 01:01:29;;;;;;;1.10;1.08;;;14.70;99.90;;;;;;5065176;28;20036;-76
2023/10/13 01:03:59;;;;;;;1.88;1.77;;;14.70;99.90;;;;;;5074409;28;20491;-76
2023/10/13 01:06:26;;;;;;;0.65;0.65;;;13.00;99.90;;;;;;5063376;28;20076;-76
2023/10/13 01:08:59;;;;;;;6.20;1.80;;;14.80;99.90;;;;;;5063349;28;20045;-76
2023/10/13 01:11:29;;;;;;;2.83;2.15;;;14.80;99.90;;;;;;5065924;28;20040;-76
2023/10/13 01:13:57;;;;;;;2.25;1.77;;;14.80;99.90;;;;;;5061853;28;20125;-76
2023/10/13 01:16:26;;;;;;;0.50;0.50;;;14.90;99.90;;;;;;5058555;28;20041;-75
2023/10/13 01:18:53;;;;;;;2.30;1.30;;;14.90;99.90;;;;;;5063728;28;20048;-76
2023/10/13 01:21:27;;;;;;;0.50;0.50;;;14.90;99.90;;;;;;5065019;28;20395;-76
2023/10/13 01:23:52;;;;;;;0.45;0.45;;;14.90;99.90;;;;;;5057341;28;20499;-76
2023/10/13 01:26:24;;;;;;;1.80;1.70;;;15.00;99.90;;;;;;5063994;28;20056;-76
2023/10/13 01:28:59;;;;;;;2.50;1.05;;;15.00;99.90;;;;;;5063252;28;20078;-76
2023/10/13 01:31:27;;;;;;;0.80;0.80;;;15.00;99.90;;;;;;5065926;28;20117;-76
2023/10/13 01:33:58;;;;;;;0.60;0.60;;;15.10;99.90;;;;;;5061117;28;20056;-76
2023/10/13 01:36:26;;;;;;;0.68;0.68;;;15.10;99.90;;;;;;5062122;28;20052;-76
2023/10/13 01:38:53;;;;;;;1.05;1.05;;;15.10;99.90;;;;;;5063172;28;20051;-76
2023/10/13 01:41:20;;;;;;;0.63;0.63;;;15.10;99.90;;;;;;5062215;28;20047;-76
2023/10/13 01:43:46;;;;;;;1.17;0.80;;;15.20;99.90;;;;;;5101202;27;20508;-76
2023/10/13 01:46:15;;;;;;;0.88;0.77;;;15.20;99.90;;;;;;5097999;28;20036;-76
2023/10/13 01:48:43;;;;;;;2.58;1.83;;;15.20;99.90;;;;;;5099268;28;20119;-75
2023/10/13 01:51:10;;;;;;;0.77;0.77;;;15.20;99.90;;;;;;5100763;28;20039;-76
2023/10/13 01:53:39;;;;;;;6.78;1.42;;;15.30;99.90;;;;;;5105056;28;20096;-76
2023/10/13 01:56:10;;;;;;;0.75;0.68;;;15.30;99.90;;;;;;5102193;27;20504;-76
2023/10/13 01:58:36;;;;;;;2.25;1.60;;;15.30;99.90;;;;;;5106478;28;20454;-76
2023/10/13 02:01:03;;;;;;;3.47;1.40;;;15.30;99.90;;;;;;5099122;28;20517;-75
2023/10/13 02:03:29;;;;;;;0.90;0.90;;;15.30;99.90;;;;;;5100207;27;20092;-75
2023/10/13 02:05:58;;;;;;;;;;;15.30;99.90;;;;;;5106706;28;20043;-76
2023/10/13 02:08:24;;;;;;;0.60;0.60;;;15.30;99.90;;;;;;5102317;28;19959;-75
2023/10/13 02:11:01;;;;;;;1.20;1.13;;;15.30;99.90;;;;;;5104357;27;20111;-75
2023/10/13 02:13:28;;;;;;;11.40;1.58;;;15.30;99.90;;;;;;5100358;28;20067;-76
2023/10/13 02:15:56;;;;;;;5.60;1.88;;;15.40;99.90;;;;;;5105308;27;20096;-75
2023/10/13 02:18:26;;;;;;;0.32;0.32;;;15.40;99.90;;;;;;5098088;28;20039;-75
2023/10/13 02:21:04;;;;;;;0.88;0.45;;;15.50;99.90;;;;;;5103776;28;20075;-75
2023/10/13 02:23:30;;;;;;;1.02;1.02;;;15.40;99.90;;;;;;5100030;28;20047;-76
2023/10/13 02:29:06;;;;;;;0.88;0.88;;;15.50;99.90;;;;;;5044758;28;20049;-76
2023/10/13 02:31:33;;;;;;;0.75;0.55;;;15.50;99.90;;;;;;5089486;28;20044;-76
2023/10/13 02:34:00;;;;;;;2.33;1.05;;;15.50;99.90;;;;;;5108394;27;20055;-76
2023/10/13 02:36:36;;;;;;;0.50;0.50;;;15.50;99.90;;;;;;5104915;27;20439;-75
2023/10/13 02:39:08;;;;;;;0.43;0.43;;;15.50;99.90;;;;;;5104669;28;20044;-75
2023/10/13 02:41:37;;;;;;;2.28;0.88;;;15.50;99.90;;;;;;5104960;28;20407;-75
2023/10/13 02:44:10;;;;;;;1.13;1.10;;;15.50;99.90;;;;;;5101247;28;20062;-75
2023/10/13 02:46:36;;;;;;;3.13;0.88;;;15.50;99.90;;;;;;5102463;27;20051;-75
2023/10/13 02:49:13;;;;;;;2.30;1.25;;;15.50;99.90;;;;;;5100180;28;20509;-75
2023/10/13 02:51:41;;;;;;;0.30;0.30;;;15.50;99.90;;;;;;5099131;28;20098;-75
2023/10/13 02:54:11;;;;;;;0.47;0.47;;;15.50;99.90;;;;;;5098693;28;20055;-75
2023/10/13 02:56:56;;;;;;;0.85;0.85;;;15.60;99.90;;;;;;5097846;28;20040;-75
2023/10/13 02:59:34;;;;;;;0.40;0.40;;;15.60;99.90;;;;;;5101036;27;20133;-75
2023/10/13 03:02:18;;;;;;;1.33;1.02;;;15.60;99.90;;;;;;5099514;27;20825;-75
2023/10/13 03:04:59;;;;;;;0.75;0.73;;;15.70;99.90;;;;;;5101944;28;20768;-75
2023/10/13 03:07:28;;;;;;;0.32;0.32;;;15.60;99.90;;;;;;5095916;28;20051;-75
2023/10/13 03:09:57;;;;;;;1.23;1.17;;;15.70;99.90;;;;;;5103318;28;20076;-75
2023/10/13 03:12:32;;;;;;;0.75;0.75;;;15.60;99.90;;;;;;5103167;28;20642;-76
2023/10/13 03:15:12;;;;;;;0.43;0.43;;;15.70;99.90;;;;;;5103092;28;20051;-76
2023/10/13 03:17:43;;;;;;;0.68;0.68;;;15.70;99.90;;;;;;5100699;27;20071;-75
2023/10/13 03:20:23;;;;;;;0.75;0.75;;;15.80;99.90;;;;;;5095458;28;20123;-76
2023/10/13 03:22:52;;;;;;;0.47;0.47;;;15.80;99.90;;;;;;5102100;28;20047;-76
2023/10/13 03:30:17;;;;;;;0.90;0.50;;;15.80;99.90;;;;;;5100403;28;20054;-76
2023/10/13 03:32:46;;;;;;;0.50;0.50;;;15.80;99.90;;;;;;5102270;28;20036;-76
2023/10/13 03:35:37;;;;;;;0.50;0.50;;;15.80;99.90;;;;;;5097987;28;20043;-75
2023/10/13 03:38:01;;;;;;;0.43;0.43;;;15.90;99.90;;;;;;5096747;28;20055;-76
2023/10/13 03:43:11;;;;;;;0.60;0.60;;;15.80;99.90;;;;;;5099094;28;20047;-76
2023/10/13 03:45:47;;;;;;;1.13;1.08;;;15.90;99.90;;;;;;5098182;28;20062;-75
2023/10/13 03:51:10;;;;;;;0.85;0.85;;;15.90;99.90;;;;;;5105081;27;20486;-76
2023/10/13 03:53:56;;;;;;;1.50;1.15;;;15.90;99.90;;;;;;5097411;28;20138;-76
2023/10/13 03:56:26;;;;;;;1.73;1.40;;;15.90;99.90;;;;;;5098517;28;20055;-76
2023/10/13 03:58:54;;;;;;;1.13;1.13;;;15.90;99.90;;;;;;5105647;27;20097;-76
2023/10/13 04:01:32;;;;;;;0.85;0.82;;;15.90;99.90;;;;;;5102891;28;20534;-76
2023/10/13 04:04:08;;;;;;;0.32;0.32;;;15.90;99.90;;;;;;5103431;27;20107;-76
2023/10/13 04:17:23;;;;;;;0.88;0.88;;;15.80;99.90;;;;;;5100062;28;20397;-77
2023/10/13 04:30:59;;;;;;;1.10;1.10;;;15.90;99.90;;;;;;5100118;28;20044;-76
2023/10/13 04:36:21;;;;;;;1.53;1.43;;;15.90;99.90;;;;;;5107626;27;20054;-76
2023/10/13 04:42:38;;;;;;;0.70;0.70;;;15.90;99.90;;;;;;5106338;28;20112;-76
2023/10/13 04:47:09;;;;;;;0.45;0.45;;;15.90;99.90;;;;;;5109391;27;20059;-77
2023/10/13 04:54:49;;;;;;;1.85;0.85;;;15.90;99.90;;;;;;5102771;27;20112;-76
2023/10/13 05:02:55;;;;;;;0.90;0.60;;;15.90;99.90;;;;;;5106417;27;20188;-77
2023/10/13 05:51:57;;;;;;;0.20;0.20;;;15.70;99.90;;;;;;5103137;27;20082;-83
2023/10/13 06:30:17;;;;;;;0.35;0.35;;;15.50;99.90;;;;;;5105390;27;20070;-79
2023/10/13 06:32:46;;;;;;;0.25;0.25;;;15.60;99.90;;;;;;5102397;28;20047;-79
2023/10/13 06:35:18;;;;;;;0.20;0.20;;;15.50;99.90;;;;;;5105298;27;20053;-79
2023/10/13 06:37:45;;;;;;;0.50;0.50;;;15.50;99.90;;;;;;5112358;27;20040;-79
2023/10/13 06:42:47;;;;;;;0.30;0.30;;;15.60;99.90;;;;;;5090284;28;20114;-79
2023/10/13 06:45:13;;;;;;;1.48;0.50;;;15.50;99.90;;;;;;5109083;27;20047;-80
2023/10/13 06:47:45;;;;;;;0.70;0.70;;;15.60;99.90;;;;;;5107160;27;20482;-79
2023/10/13 06:50:16;;;;;;;0.30;0.30;;;15.60;99.90;;;;;;5111825;27;20381;-80
2023/10/13 06:52:43;;;;;;;0.30;0.30;;;15.60;99.90;;;;;;5100515;28;20048;-79
2023/10/13 06:55:17;;;;;;;0.20;0.20;;;15.60;99.90;;;;;;5118526;28;20082;-78
2023/10/13 06:57:46;;;;;;;0.20;0.20;;;15.70;99.90;;;;;;5118386;27;20048;-82
2023/10/13 07:00:29;;;;;;;0.25;0.25;;;15.80;99.90;;;;;;5115664;27;20044;-79
2023/10/13 07:03:05;;;;;;;0.40;0.40;;;15.80;99.90;;;;;;5112625;28;20099;-78
2023/10/13 07:05:39;;;;;;;0.30;0.30;;;15.80;99.90;;;;;;5118236;28;20059;-81
2023/10/13 07:08:06;;;;;;;0.25;0.25;;;15.90;99.90;;;;;;5103722;27;20289;-81
2023/10/13 07:10:44;;;;;;;0.85;0.85;;;15.90;99.90;;;;;;5099975;27;20118;-80
2023/10/13 07:13:13;;;;;;;0.30;0.30;;;16.00;99.90;;;;;;5105063;27;20102;-79
2023/10/13 07:15:44;;;;;;;1.50;1.17;;;16.00;99.90;;;;;;5105464;27;20100;-80
2023/10/13 07:18:13;;;;;;;0.30;0.30;;;16.00;99.90;;;;;;5103228;27;20039;-80
2023/10/13 07:20:49;;;;;;;0.50;0.50;;;16.00;99.90;;;;;;5090201;28;20047;-79
2023/10/13 07:23:17;;;;;;;1.30;0.77;;;16.00;99.90;;;;;;5102966;28;20035;-79
2023/10/13 07:25:54;;;;;;;0.40;0.40;;;16.10;99.90;;;;;;5106166;28;20086;-79
2023/10/13 07:28:21;;;;;;;0.40;0.40;;;16.10;99.90;;;;;;5107555;28;20449;-79
2023/10/13 07:31:09;;;;;;;0.30;0.30;;;16.10;99.90;;;;;;5102801;28;20093;-79
2023/10/13 07:33:35;;;;;;;0.30;0.30;;;16.10;99.90;;;;;;5104252;28;20048;-78
2023/10/13 07:36:11;;;;;;;0.40;0.40;;;16.10;99.90;;;;;;5106514;28;20104;-78
2023/10/13 07:38:37;;;;;;;0.77;0.77;;;16.10;99.90;;;;;;5105587;28;20054;-79
2023/10/13 07:41:09;;;;;;;0.55;0.55;;;16.10;99.90;;;;;;5104968;27;20051;-79
2023/10/13 07:43:37;;;;;;;0.30;0.30;;;16.20;99.90;;;;;;5106388;28;20063;-77
2023/10/13 07:46:09;;;;;;;0.85;0.85;;;16.10;99.90;;;;;;5107256;28;20055;-79
2023/10/13 07:48:37;;;;;;;0.30;0.30;;;16.10;99.90;;;;;;5108626;27;20051;-78
2023/10/13 07:51:05;;;;;;;0.50;0.50;;;16.20;99.90;;;;;;5120969;27;20371;-79
2023/10/13 07:53:34;;;;;;;0.40;0.40;;;16.10;99.90;;;;;;5106626;28;20509;-79
2023/10/13 07:56:05;;;;;;;0.57;0.52;;;16.10;99.90;;;;;;5106368;28;20070;-78
2023/10/13 07:58:33;;;;;;;0.63;0.63;;;16.00;99.90;;;;;;5103614;27;20040;-79
2023/10/13 08:06:28;;;;;;;0.30;0.30;;;16.00;99.90;;;;;;5019053;28;20075;-79
2023/10/13 08:08:55;;;;;;;0.22;0.22;;;16.00;99.90;;;;;;5089850;28;20109;-79
2023/10/13 08:16:54;;;;;;;0.38;0.38;;;16.00;99.90;;;;;;5101946;28;20083;-78
2023/10/13 08:19:28;;;;;;;0.80;0.45;;;15.90;99.90;;;;;;5087575;28;20470;-79
2023/10/13 08:21:59;;;;;;;0.43;0.43;;;16.00;99.90;;;;;;5102454;28;20044;-79
2023/10/13 08:24:55;;;;;;;0.63;0.63;;;16.00;99.90;;;;;;5107502;28;20071;-79
2023/10/13 08:27:34;;;;;;;0.45;0.45;;;16.00;99.90;;;;;;5119568;28;20558;-79
2023/10/13 08:37:29;;;;;;;0.20;0.20;;;16.20;99.90;;;;;;5106141;28;20052;-79
2023/10/13 08:45:52;;;;;;;0.20;0.20;;;16.20;99.90;;;;;;5103801;28;20044;-78
2023/10/13 08:48:12;;;;;;;0.38;0.38;;;16.30;99.90;;;;;;5106646;28;20059;-78
2023/10/13 08:56:14;;;;;;;0.85;0.85;;;16.50;99.90;;;;;;5104038;28;20395;-77
2023/10/13 09:04:21;;;;;;;0.77;0.60;;;16.70;99.90;;;;;;5101733;28;20082;-77
2023/10/13 09:07:08;;;;;;;0.40;0.40;;;16.70;99.90;;;;;;5104880;28;20043;-77
2023/10/13 09:15:17;;;;;;;0.55;0.55;;;17.00;99.90;;;;;;5107458;27;20051;-77
2023/10/13 09:25:33;;;;;;;1.67;1.58;;;17.20;99.90;;;;;;5107496;27;20062;-78
2023/10/13 09:28:00;;;;;;;1.92;1.83;;;17.30;99.90;;;;;;5100143;28;20054;-77
2023/10/13 09:30:31;;;;;;;0.30;0.30;;;17.40;99.90;;;;;;5102630;28;20087;-78
2023/10/13 09:33:04;;;;;;;1.80;1.48;;;17.50;99.90;;;;;;5108080;28;20073;-78
2023/10/13 09:35:34;;;;;;;0.68;0.68;;;17.60;99.90;;;;;;5108522;27;20052;-77
2023/10/13 09:38:03;;;;;;;0.55;0.55;;;17.60;99.90;;;;;;5110333;27;20062;-77
2023/10/13 09:43:04;;;;;;;0.40;0.40;;;17.80;99.90;;;;;;5109163;28;20055;-77
2023/10/13 09:45:43;;;;;;;0.50;0.50;;;17.90;99.90;;;;;;5105493;28;20434;-77
2023/10/13 09:48:21;;;;;;;1.35;0.73;;;18.00;99.90;;;;;;5090617;27;20118;-78
2023/10/13 09:50:48;;;;;;;1.20;1.10;;;18.00;99.90;;;;;;5107828;27;20040;-78
2023/10/13 09:53:17;;;;;;;0.95;0.95;;;18.00;99.90;;;;;;5108496;27;20047;-77
2023/10/13 09:56:13;;;;;;;0.43;0.43;;;18.10;99.90;;;;;;5107988;27;20068;-76
2023/10/13 09:59:10;;;;;;;1.02;0.93;;;18.20;99.90;;;;;;5103152;27;20043;-76
2023/10/13 10:01:57;;;;;;;1.08;1.00;;;18.30;99.90;;;;;;5124056;27;20637;-76
2023/10/13 10:04:24;;;;;;;0.38;0.38;;;18.40;99.90;;;;;;5107342;27;20058;-78
2023/10/13 10:06:56;;;;;;;0.90;0.82;;;18.50;99.90;;;;;;5108065;27;20039;-77
2023/10/13 10:09:39;;;;;;;0.25;0.25;;;18.60;99.90;;;;;;5091548;28;20176;-75
2023/10/13 10:12:25;;;;;;;0.50;0.50;;;18.60;99.90;;;;;;5108745;28;20490;-75
2023/10/13 10:15:28;;;;;;;0.30;0.30;;;18.70;99.90;;;;;;5110895;27;20044;-75
2023/10/13 10:17:54;;;;;;;1.10;0.95;;;18.70;99.90;;;;;;5092611;28;20051;-75
2023/10/13 10:20:39;;;;;;;1.80;1.70;;;18.70;99.90;;;;;;5109578;27;20122;-75
2023/10/13 10:23:09;;;;;;;0.40;0.40;;;18.70;99.90;;;;;;5105999;28;20051;-75
2023/10/13 10:25:37;;;;;;;0.30;0.30;;;18.70;99.90;;;;;;5110142;28;21133;-75
2023/10/13 10:28:05;;;;;;;0.28;0.28;;;18.70;99.90;;;;;;5112142;27;20094;-75
2023/10/13 10:30:33;;;;;;;0.20;0.20;;;18.70;99.90;;;;;;5107684;28;20047;-76
2023/10/13 10:33:02;;;;;;;0.40;0.32;;;18.70;99.90;;;;;;5109130;27;20075;-75
2023/10/13 10:35:32;;;;;;;1.27;0.60;;;18.70;99.90;;;;;;5103627;28;20083;-75
2023/10/13 10:38:24;;;;;;;0.40;0.40;;;18.80;99.90;;;;;;5107216;28;20688;-76
2023/10/13 10:40:52;;;;;;;0.65;0.57;;;18.90;99.90;;;;;;5105730;28;20043;-75
2023/10/13 10:43:22;;;;;;;1.40;1.30;;;19.00;99.90;;;;;;5108345;28;20051;-75
2023/10/13 10:45:51;;;;;;;1.15;1.08;;;19.10;99.90;;;;;;5109543;28;20123;-75
2023/10/13 10:48:21;;;;;;;;;;;19.30;99.90;;;;;;5094654;28;20051;-76
2023/10/13 10:50:54;;;;;;;0.80;0.80;;;19.40;99.90;;;;;;5110104;27;19974;-75
2023/10/13 10:53:33;;;;;;;0.52;0.52;;;19.50;99.90;;;;;;5109556;28;20410;-75
2023/10/13 10:56:19;;;;;;;0.75;0.75;;;19.50;99.90;;;;;;5096376;28;20417;-76
2023/10/13 10:58:54;;;;;;;2.28;2.08;;;19.50;99.90;;;;;;5108883;27;20112;-76
2023/10/13 11:01:33;;;;;;;1.10;0.75;;;19.50;99.90;;;;;;5091712;28;20203;-76
2023/10/13 11:04:18;;;;;;;0.20;0.20;;;19.50;99.90;;;;;;5105570;28;20055;-76
2023/10/13 11:06:55;;;;;;;4.20;1.88;;;19.60;99.90;;;;;;5108158;28;20040;-76
2023/10/13 11:09:36;;;;;;;1.67;1.38;;;19.80;99.90;;;;;;5092220;28;20040;-75
2023/10/13 11:12:43;;;;;;;0.50;0.50;;;20.00;99.90;;;;;;5105889;28;20568;-75
2023/10/13 11:15:24;;;;;;;0.45;0.45;;;20.00;99.90;;;;;;5105523;28;20461;-76
2023/10/13 11:17:58;;;;;;;4.03;0.60;;;20.00;99.90;;;;;;5110431;27;20136;-76
2023/10/13 11:20:34;;;;;;;4.85;1.60;;;19.90;99.90;;;;;;5106204;28;20047;-75
2023/10/13 11:23:02;;;;;;;0.30;0.30;;;19.90;99.90;;;;;;5086900;28;20043;-75
2023/10/13 11:25:34;;;;;;;1.23;0.98;;;19.90;99.90;;;;;;5109580;28;20042;-75
2023/10/13 11:28:20;;;;;;;1.45;1.20;;;19.80;99.90;;;;;;5105015;27;20053;-75
2023/10/13 11:30:50;;;;;;;0.63;0.63;;;19.70;99.90;;;;;;5104074;28;20055;-75
2023/10/13 11:33:28;;;;;;;0.60;0.57;;;19.70;99.90;;;;;;5097479;28;20052;-76
2023/10/13 11:35:57;;;;;;;1.95;0.73;;;19.80;99.90;;;;;;5106371;27;20043;-76
2023/10/13 11:38:49;;;;;;;0.57;0.57;;;19.90;99.90;;;;;;5108376;27;20123;-76
2023/10/13 11:41:14;;;;;;;1.85;0.70;;;20.00;99.90;;;;;;5105710;28;20058;-75
2023/10/13 11:46:55;;;;;;;0.30;0.30;;;20.00;99.90;;;;;;5105773;28;20051;-75
2023/10/13 11:52:01;;;;;;;0.40;0.40;;;19.80;99.90;;;;;;5106605;27;20051;-76
2023/10/13 11:54:27;;;;;;;2.63;1.90;;;19.70;99.90;;;;;;5122399;27;20054;-76
2023/10/13 11:56:58;;;;;;;;;;;19.50;99.90;;;;;;5106399;27;20043;-76
2023/10/13 11:59:28;;;;;;;1.35;0.75;;;19.30;99.90;;;;;;5105869;28;19980;-78
2023/10/13 12:04:54;;;;;;;0.35;0.35;;;19.00;99.90;;;;;;5108323;28;20051;-75
2023/10/13 12:07:26;;;;;;;0.80;0.80;;;18.90;99.90;;;;;;5093507;28;20083;-75
2023/10/13 12:12:22;;;;;;;1.40;1.38;;;18.70;99.90;;;;;;5109129;28;20126;-75
2023/10/13 12:14:57;;;;;;;0.40;0.40;;;18.80;99.90;;;;;;5099445;28;20405;-76
2023/10/13 12:17:39;;;;;;;4.95;1.02;;;18.90;99.90;;;;;;5108967;28;20449;-75
2023/10/13 12:20:09;;;;;;;1.08;1.02;;;19.10;99.90;;;;;;5109372;28;20115;-75
2023/10/13 12:22:51;;;;;;;0.30;0.30;;;19.20;99.90;;;;;;5109126;28;20032;-76
2023/10/13 12:28:06;;;;;;;0.45;0.45;;;19.30;99.90;;;;;;5108776;28;20139;-76
2023/10/13 12:30:52;;;;;;;3.30;0.60;;;19.30;99.90;;;;;;5107805;28;20410;-75
2023/10/13 12:33:24;;;;;;;4.80;1.27;;;19.40;99.90;;;;;;5108959;28;20047;-76
2023/10/13 12:36:11;;;;;;;0.60;0.60;;;19.40;99.90;;;;;;5116796;28;20047;-74
2023/10/13 12:52:19;;;;;;;0.30;0.30;;;19.10;99.90;;;;;;5112957;28;20048;-75
2023/10/13 12:57:22;;;;;;;1.55;0.50;;;18.90;99.90;;;;;;5111725;28;20047;-76
2023/10/13 12:59:49;;;;;;;5.47;1.23;;;18.90;99.90;;;;;;5082497;28;20044;-76
2023/10/13 13:02:15;;;;;;;0.60;0.60;;;18.80;99.90;;;;;;5105454;27;20152;-76
2023/10/13 13:04:51;;;;;;;;;;;18.70;99.90;;;;;;5112420;28;20095;-76
2023/10/13 13:07:16;;;;;;;1.08;0.90;;;18.70;99.90;;;;;;5097617;28;20352;-76
2023/10/13 13:09:42;;;;;;;;;;;18.60;99.90;;;;;;5112570;28;20184;-76
2023/10/13 13:12:12;;;;;;;1.33;1.13;;;18.60;99.90;;;;;;5112853;28;19984;-76
2023/10/13 13:14:41;;;;;;;2.08;1.88;;;18.50;99.90;;;;;;5110808;27;20126;-76
2023/10/13 13:17:07;;;;;;;6.22;2.25;;;18.40;99.90;;;;;;5112851;28;20122;-76
2023/10/13 13:19:35;;;;;;;;;;;18.30;99.90;;;;;;5112826;28;20123;-76
2023/10/13 13:22:02;;;;;;;0.35;0.35;;;18.20;99.90;;;;;;5110124;27;20361;-76
2023/10/13 13:24:29;;;;;;;0.57;0.57;;;18.10;99.90;;;;;;5074134;28;20050;-76
2023/10/13 13:26:56;;;;;;;0.77;0.70;;;18.10;99.90;;;;;;5103643;28;20052;-76
2023/10/13 13:29:22;;;;;;;6.30;1.27;;;18.00;99.90;;;;;;5090870;28;20043;-76
2023/10/13 13:31:48;;;;;;;1.08;0.98;;;18.00;99.90;;;;;;5096378;28;20039;-76
2023/10/13 13:34:14;;;;;;;;;;;18.00;99.90;;;;;;5091892;28;20047;-76
2023/10/13 13:36:44;;;;;;;0.88;0.77;;;18.00;99.90;;;;;;5094612;28;20425;-76
2023/10/13 13:39:17;;;;;;;0.47;0.47;;;18.00;99.90;;;;;;5105700;28;20485;-77
2023/10/13 13:41:43;;;;;;;0.55;0.55;;;17.90;99.90;;;;;;5103208;28;20040;-76
2023/10/13 13:44:15;;;;;;;0.57;0.57;;;17.90;99.90;;;;;;5108504;28;20486;-76
2023/10/13 13:46:41;;;;;;;0.68;0.65;;;17.90;99.90;;;;;;5108283;28;20564;-76
2023/10/13 13:49:08;;;;;;;4.00;1.95;;;17.90;99.90;;;;;;5107362;28;20127;-76
2023/10/13 13:51:37;;;;;;;1.15;1.15;;;17.90;99.90;;;;;;5092180;28;20039;-76
2023/10/13 13:54:06;;;;;;;0.60;0.60;;;17.90;99.90;;;;;;5104745;28;20505;-75
2023/10/13 13:56:38;;;;;;;1.42;1.33;;;17.90;99.90;;;;;;5109752;27;20077;-76
2023/10/13 13:59:08;;;;;;;1.00;1.00;;;17.90;99.90;;;;;;5107254;27;20050;-76
2023/10/13 14:01:37;;;;;;;0.60;0.60;;;18.00;99.90;;;;;;5108471;28;20243;-76
2023/10/13 14:04:06;;;;;;;0.35;0.35;;;18.10;99.90;;;;;;5108346;28;20553;-76
2023/10/13 14:06:33;;;;;;;0.77;0.77;;;18.10;99.90;;;;;;5109343;27;20047;-75
2023/10/13 14:09:02;;;;;;;3.45;1.90;;;18.10;99.90;;;;;;5107727;28;20043;-75
2023/10/13 14:16:47;;;;;;;0.30;0.30;;;18.20;99.90;;;;;;5108130;28;20505;-75
2023/10/13 14:19:26;;;;;;;4.07;3.67;;;18.30;99.90;;;;;;5108539;28;20104;-75
2023/10/13 14:22:06;;;;;;;2.47;1.00;;;18.30;99.90;;;;;;5107875;28;20039;-76
2023/10/13 14:24:34;;;;;;;0.90;0.73;;;18.40;99.90;;;;;;5107363;28;20058;-76
2023/10/13 14:27:19;;;;;;;0.70;0.70;;;18.40;99.90;;;;;;5107739;28;20148;-76
2023/10/13 14:29:45;;;;;;;3.92;1.70;;;18.40;99.90;;;;;;5103875;27;20082;-76
2023/10/13 14:32:15;;;;;;;;;;;18.40;99.90;;;;;;5108268;28;20477;-75
2023/10/13 14:34:42;;;;;;;0.47;0.47;;;18.50;99.90;;;;;;5107871;27;19923;-75
2023/10/13 14:37:08;;;;;;;0.40;0.40;;;18.50;99.90;;;;;;5107788;28;20531;-76
2023/10/13 14:39:36;;;;;;;1.05;0.98;;;18.50;99.90;;;;;;5108670;28;20052;-76
2023/10/13 14:42:05;;;;;;;3.10;1.73;;;18.40;99.90;;;;;;5103809;28;20048;-76
2023/10/13 14:44:32;;;;;;;0.40;0.40;;;18.40;99.90;;;;;;5107863;28;20111;-76
2023/10/13 14:46:58;;;;;;;2.40;1.77;;;18.40;99.90;;;;;;5109007;28;20119;-76
2023/10/13 14:49:23;;;;;;;;;;;18.40;99.90;;;;;;5107877;28;20195;-76
2023/10/13 14:51:49;;;;;;;3.40;0.60;;;18.40;99.90;;;;;;5105992;27;19923;-76
2023/10/13 14:54:16;;;;;;;0.45;0.45;;;18.40;99.90;;;;;;5108818;27;20997;-75
2023/10/13 14:56:44;;;;;;;0.82;0.82;;;18.30;99.90;;;;;;5106101;28;20040;-75
2023/10/13 14:59:17;;;;;;;1.35;0.85;;;18.30;99.90;;;;;;5108523;28;20047;-76
2023/10/13 15:01:43;;;;;;;2.95;2.33;;;18.30;99.90;;;;;;5106514;28;20062;-75
2023/10/13 15:04:08;;;;;;;;;;;18.30;99.90;;;;;;5107089;28;20047;-75
2023/10/13 15:06:34;;;;;;;2.08;1.17;;;18.30;99.90;;;;;;5106942;27;20003;-75
2023/10/13 15:09:00;;;;;;;;;;;18.30;99.90;;;;;;5108241;28;20047;-75
2023/10/13 15:11:35;;;;;;;2.58;1.60;;;18.30;99.90;;;;;;5107392;28;19967;-75
2023/10/13 15:14:03;;;;;;;1.50;1.02;;;18.30;99.90;;;;;;5109688;27;20063;-75
2023/10/13 15:16:28;;;;;;;1.55;1.00;;;18.30;99.90;;;;;;5088619;28;20043;-76
2023/10/13 15:18:54;;;;;;;;;;;18.30;99.90;;;;;;5091049;28;20066;-76
2023/10/13 15:21:34;;;;;;;2.38;1.63;;;18.30;99.90;;;;;;5108600;28;20006;-77
2023/10/13 15:24:16;;;;;;;1.58;0.88;;;18.30;99.90;;;;;;5105627;28;20039;-75
2023/10/13 15:26:48;;;;;;;1.08;0.98;;;18.10;99.90;;;;;;5086434;27;20122;-76
2023/10/13 15:29:24;;;;;;;0.63;0.63;;;17.90;99.90;;;;;;5107260;28;20108;-76
2023/10/13 15:32:04;;;;;;;0.40;0.40;;;17.80;99.90;;;;;;5107112;28;20091;-76
2023/10/13 15:34:31;;;;;;;1.70;1.60;;;17.70;99.90;;;;;;5106847;28;20537;-76
2023/10/13 15:36:58;;;;;;;0.30;0.30;;;17.70;99.90;;;;;;5106261;28;20086;-76
2023/10/13 15:39:24;;;;;;;0.77;0.77;;;17.70;99.90;;;;;;5106844;28;20048;-75
2023/10/13 15:41:53;;;;;;;0.93;0.93;;;17.60;99.90;;;;;;5092234;28;20045;-75
2023/10/13 15:44:24;;;;;;;1.38;1.27;;;17.70;99.90;;;;;;5106728;28;20054;-76
2023/10/13 15:46:53;;;;;;;3.63;0.70;;;17.70;99.90;;;;;;5106681;28;20570;-75
2023/10/13 15:49:19;;;;;;;0.43;0.43;;;17.70;99.90;;;;;;5100000;28;20079;-76
2023/10/13 15:51:45;;;;;;;1.58;0.88;;;17.80;99.90;;;;;;5083153;28;20544;-76
2023/10/13 15:54:14;;;;;;;;;;;17.80;99.90;;;;;;5107191;28;20062;-76
2023/10/13 15:56:48;;;;;;;0.85;0.85;;;17.70;99.90;;;;;;5101747;27;20024;-77
2023/10/13 15:59:15;;;;;;;0.68;0.68;;;17.80;99.90;;;;;;5087665;28;20585;-76
2023/10/13 16:01:41;;;;;;;0.68;0.60;;;17.80;99.90;;;;;;5098508;28;20043;-76
2023/10/13 16:04:13;;;;;;;1.55;1.48;;;17.80;99.90;;;;;;5100505;28;20439;-76
2023/10/13 16:06:50;;;;;;;1.75;0.68;;;17.80;99.90;;;;;;5100774;28;20557;-76
2023/10/13 16:09:22;;;;;;;0.50;0.50;;;17.70;99.90;;;;;;5098624;28;20043;-76
2023/10/13 16:11:49;;;;;;;0.95;0.73;;;17.70;99.90;;;;;;5099080;28;20043;-75
2023/10/13 16:14:17;;;;;;;7.65;1.17;;;17.70;99.90;;;;;;5099644;28;20309;-76
2023/10/13 16:16:47;;;;;;;0.88;0.88;;;17.70;99.90;;;;;;5101171;28;20044;-77
2023/10/13 16:19:14;;;;;;;0.77;0.77;;;17.70;99.90;;;;;;5107180;28;20494;-74
2023/10/13 16:21:40;;;;;;;0.85;0.85;;;17.70;99.90;;;;;;5120074;27;20040;-75
2023/10/13 16:24:10;;;;;;;1.50;1.40;;;17.70;99.90;;;;;;5107738;28;20042;-75
2023/10/13 16:26:40;;;;;;;1.20;1.10;;;17.60;99.90;;;;;;5106332;28;20039;-74
2023/10/13 16:29:07;;;;;;;0.65;0.65;;;17.70;99.90;;;;;;5106001;28;20430;-74
2023/10/13 16:31:33;;;;;;;0.57;0.57;;;17.70;99.90;;;;;;5105440;28;20083;-75
2023/10/13 16:33:59;;;;;;;0.75;0.75;;;17.70;99.90;;;;;;5106657;28;20082;-74
2023/10/13 16:36:25;;;;;;;;;;;17.70;99.90;;;;;;5094173;28;20097;-75
2023/10/13 16:38:50;;;;;;;1.27;0.82;;;17.70;99.90;;;;;;5105438;28;19924;-74
2023/10/13 16:41:16;;;;;;;;;;;17.70;99.90;;;;;;5105872;28;20075;-74
2023/10/13 16:43:42;;;;;;;0.68;0.68;;;17.70;99.90;;;;;;5107499;28;20419;-74
2023/10/13 16:46:11;;;;;;;;;;;17.70;99.90;;;;;;5104957;28;20116;-75
2023/10/13 16:48:40;;;;;;;0.40;0.40;;;17.70;99.90;;;;;;5105826;28;19972;-74
2023/10/13 16:51:12;;;;;;;1.10;1.00;;;17.60;99.90;;;;;;5106808;28;20043;-74
2023/10/13 16:53:49;;;;;;;0.80;0.80;;;17.60;99.90;;;;;;5087525;28;20482;-74
2023/10/13 16:56:18;;;;;;;0.25;0.25;;;17.70;99.90;;;;;;5107386;28;20051;-74
2023/10/13 16:58:44;;;;;;;0.30;0.30;;;17.70;99.90;;;;;;5086730;28;20040;-74
2023/10/13 17:01:14;;;;;;;0.90;0.88;;;17.70;99.90;;;;;;5104704;28;20046;-75
2023/10/13 17:03:41;;;;;;;0.57;0.45;;;17.70;99.90;;;;;;5106793;28;20083;-75